Time;durP1;ratioP1;P1;durP2;ratioP2;P2;SDS_P1;SDS_P2;PMS_P1;PMS_P2;Temp;Humidity;BMP_temperature;BMP_pressure;BME280_temperature;BME280_humidity;BME280_pressure;Samples;Min_cycle;Max_cycle;Signal;HPM_P1;HPM_P2
2023/06/29 00:01:08;;;;;;;2.80;2.60;;;17.90;99.90;;;;;;5053605;28;20209;-59
2023/06/29 00:03:33;;;;;;;4.73;2.97;;;18.00;99.90;;;;;;5060529;28;20272;-59
2023/06/29 00:06:02;;;;;;;4.27;3.60;;;18.00;99.90;;;;;;5059751;28;20206;-59
2023/06/29 00:08:35;;;;;;;4.70;3.20;;;18.10;99.90;;;;;;5060023;28;20203;-60
2023/06/29 00:11:03;;;;;;;4.90;2.97;;;18.20;99.90;;;;;;5063248;28;20206;-62
2023/06/29 00:13:28;;;;;;;5.20;3.00;;;18.20;99.90;;;;;;5048886;28;20201;-61
2023/06/29 00:15:54;;;;;;;3.53;2.37;;;18.20;99.90;;;;;;5049756;28;20268;-60
2023/06/29 00:18:19;;;;;;;3.63;2.83;;;18.20;99.90;;;;;;5059986;28;20190;-60
2023/06/29 00:20:45;;;;;;;3.90;3.40;;;18.10;99.90;;;;;;5062661;28;20205;-61
2023/06/29 00:23:10;;;;;;;4.07;3.10;;;18.00;99.90;;;;;;5060395;28;20560;-61
2023/06/29 00:25:38;;;;;;;4.23;2.97;;;18.00;99.90;;;;;;5058902;28;20243;-61
2023/06/29 00:28:04;;;;;;;3.50;2.73;;;18.00;99.90;;;;;;5059220;28;20196;-61
2023/06/29 00:30:30;;;;;;;4.50;2.80;;;18.00;99.90;;;;;;5061796;28;20816;-62
2023/06/29 00:32:56;;;;;;;4.87;2.83;;;18.00;99.90;;;;;;5046105;28;20283;-62
2023/06/29 00:35:21;;;;;;;3.80;2.80;;;18.00;99.90;;;;;;5044846;28;20203;-61
2023/06/29 00:37:47;;;;;;;2.73;2.30;;;17.90;99.90;;;;;;5050838;28;20279;-60
2023/06/29 00:40:13;;;;;;;3.03;2.33;;;17.90;99.90;;;;;;5040115;28;20289;-60
2023/06/29 00:42:38;;;;;;;4.37;2.90;;;17.80;99.90;;;;;;5047334;28;20256;-59
2023/06/29 00:45:05;;;;;;;3.20;2.90;;;17.70;99.90;;;;;;5047322;28;20367;-59
2023/06/29 00:47:32;;;;;;;3.10;2.70;;;17.70;99.90;;;;;;5047605;28;20198;-60
2023/06/29 00:49:59;;;;;;;4.57;2.90;;;17.70;99.90;;;;;;5057689;28;20312;-62
2023/06/29 00:52:24;;;;;;;3.80;2.77;;;17.70;99.90;;;;;;5060581;28;20703;-60
2023/06/29 00:54:50;;;;;;;4.30;3.33;;;17.80;99.90;;;;;;5047958;28;20204;-59
2023/06/29 00:57:16;;;;;;;3.93;2.33;;;17.80;99.90;;;;;;5046222;28;20216;-59
2023/06/29 00:59:42;;;;;;;5.23;2.70;;;17.80;99.90;;;;;;5049409;28;20216;-59
2023/06/29 01:02:10;;;;;;;5.83;2.87;;;17.80;99.90;;;;;;5042753;28;20289;-59
2023/06/29 01:04:37;;;;;;;6.37;2.80;;;17.80;99.90;;;;;;5042561;28;20231;-59
2023/06/29 01:07:18;;;;;;;5.10;2.70;;;17.80;99.90;;;;;;5046701;28;20215;-58
2023/06/29 01:09:46;;;;;;;4.50;3.40;;;17.80;99.90;;;;;;5044227;28;20202;-58
2023/06/29 01:12:13;;;;;;;5.13;3.37;;;17.80;99.90;;;;;;5046137;28;20209;-58
2023/06/29 01:14:41;;;;;;;7.37;2.90;;;17.80;99.90;;;;;;5046123;28;20233;-58
2023/06/29 01:17:13;;;;;;;8.27;3.73;;;17.70;99.90;;;;;;5045996;28;20283;-58
2023/06/29 01:19:42;;;;;;;2.93;2.63;;;17.70;99.90;;;;;;5044549;28;20218;-59
2023/06/29 01:22:14;;;;;;;3.97;2.60;;;17.70;99.90;;;;;;5049752;28;20212;-58
2023/06/29 01:24:40;;;;;;;3.73;2.90;;;17.70;99.90;;;;;;5046350;28;20280;-58
2023/06/29 01:27:12;;;;;;;3.33;2.60;;;17.70;99.90;;;;;;5046220;28;20236;-58
2023/06/29 01:29:38;;;;;;;3.50;3.20;;;17.70;99.90;;;;;;5046004;28;20211;-58
2023/06/29 01:32:07;;;;;;;5.50;3.70;;;17.70;99.90;;;;;;5045987;28;20272;-58
2023/06/29 01:34:34;;;;;;;3.10;2.87;;;17.70;99.90;;;;;;5042678;28;20204;-59
2023/06/29 01:37:06;;;;;;;4.83;3.47;;;17.60;99.90;;;;;;5046550;28;20211;-59
2023/06/29 01:39:42;;;;;;;5.53;3.83;;;17.50;99.90;;;;;;5046451;28;20247;-58
2023/06/29 01:42:09;;;;;;;5.80;4.63;;;17.40;99.90;;;;;;5045846;28;20217;-60
2023/06/29 01:44:34;;;;;;;4.23;3.83;;;17.40;99.90;;;;;;5049427;28;20360;-58
2023/06/29 01:47:00;;;;;;;4.00;3.30;;;17.30;99.90;;;;;;5055240;28;20590;-58
2023/06/29 01:49:26;;;;;;;9.33;3.90;;;17.20;99.90;;;;;;5053328;28;20220;-58
2023/06/29 01:51:52;;;;;;;6.13;3.70;;;17.30;99.90;;;;;;5045825;28;20706;-58
2023/06/29 01:54:17;;;;;;;5.63;3.03;;;17.30;99.90;;;;;;5052267;28;20654;-59
2023/06/29 01:56:43;;;;;;;5.10;4.67;;;17.20;99.90;;;;;;5059871;28;20199;-59
2023/06/29 01:59:10;;;;;;;4.10;3.70;;;17.10;99.90;;;;;;5059352;28;20222;-60
2023/06/29 02:01:35;;;;;;;3.87;3.33;;;17.10;99.90;;;;;;5059684;28;20232;-60
2023/06/29 02:04:02;;;;;;;8.77;4.37;;;17.00;99.90;;;;;;5057512;28;20548;-60
2023/06/29 02:06:28;;;;;;;3.83;3.43;;;17.00;99.90;;;;;;5050452;28;20211;-59
2023/06/29 02:08:53;;;;;;;5.10;3.60;;;17.00;99.90;;;;;;5050004;28;20564;-59
2023/06/29 02:11:20;;;;;;;4.20;3.63;;;16.90;99.90;;;;;;5061397;28;20274;-59
2023/06/29 02:13:46;;;;;;;4.80;4.30;;;16.80;99.90;;;;;;5056778;28;20198;-59
2023/06/29 02:16:11;;;;;;;3.80;3.50;;;16.80;99.90;;;;;;5058790;28;20210;-59
2023/06/29 02:18:37;;;;;;;5.57;4.30;;;16.80;99.90;;;;;;5059154;28;20194;-59
2023/06/29 02:21:02;;;;;;;5.20;3.90;;;16.80;99.90;;;;;;5058593;28;20395;-59
2023/06/29 02:23:28;;;;;;;6.13;3.90;;;16.80;99.90;;;;;;5059363;28;20203;-59
2023/06/29 02:25:54;;;;;;;5.37;4.20;;;16.80;99.90;;;;;;5058925;28;20923;-59
2023/06/29 02:28:19;;;;;;;3.97;3.33;;;16.80;99.90;;;;;;5059128;28;20234;-59
2023/06/29 02:30:44;;;;;;;4.77;3.63;;;16.90;99.90;;;;;;5059382;28;20210;-59
2023/06/29 02:33:10;;;;;;;4.87;4.23;;;16.90;99.90;;;;;;5050896;28;21074;-59
2023/06/29 02:35:35;;;;;;;7.67;4.47;;;16.80;99.90;;;;;;5049645;28;20206;-59
2023/06/29 02:38:01;;;;;;;5.53;4.27;;;16.90;99.90;;;;;;5047826;28;20202;-59
2023/06/29 02:40:26;;;;;;;6.80;3.97;;;16.80;99.90;;;;;;5048740;28;20317;-59
2023/06/29 02:42:52;;;;;;;5.87;3.97;;;16.70;99.90;;;;;;5048567;28;20206;-59
2023/06/29 02:45:17;;;;;;;5.53;4.03;;;16.70;99.90;;;;;;5056560;28;20202;-60
2023/06/29 02:47:43;;;;;;;6.53;5.13;;;16.70;99.90;;;;;;5058960;28;20763;-59
2023/06/29 02:50:08;;;;;;;5.07;4.60;;;16.60;99.90;;;;;;5058344;28;20207;-58
2023/06/29 02:52:34;;;;;;;4.27;3.87;;;16.50;99.90;;;;;;5058763;28;20202;-59
2023/06/29 02:54:59;;;;;;;10.23;4.87;;;16.50;99.90;;;;;;5058267;28;20190;-59
2023/06/29 02:57:25;;;;;;;6.17;3.97;;;16.50;99.90;;;;;;5058174;28;20206;-60
2023/06/29 02:59:50;;;;;;;8.77;4.47;;;16.50;99.90;;;;;;5058001;28;20281;-59
2023/06/29 03:02:16;;;;;;;4.73;4.30;;;16.50;99.90;;;;;;5059737;28;20201;-60
2023/06/29 03:04:42;;;;;;;5.40;4.33;;;16.60;99.90;;;;;;5052917;28;20241;-59
2023/06/29 03:07:07;;;;;;;5.73;4.47;;;16.50;99.90;;;;;;5058254;28;20874;-59
2023/06/29 03:09:33;;;;;;;6.10;4.63;;;16.50;99.90;;;;;;5058215;28;20209;-60
2023/06/29 03:11:58;;;;;;;6.23;4.87;;;16.50;99.90;;;;;;5055749;28;20713;-60
2023/06/29 03:14:24;;;;;;;8.53;5.70;;;16.50;99.90;;;;;;5058042;28;20202;-59
2023/06/29 03:16:49;;;;;;;10.07;5.80;;;16.50;99.90;;;;;;5057974;28;20345;-59
2023/06/29 03:19:15;;;;;;;13.83;9.23;;;16.50;99.90;;;;;;5058016;28;20515;-60
2023/06/29 03:21:40;;;;;;;9.27;7.87;;;16.50;99.90;;;;;;5056435;28;20286;-59
2023/06/29 03:24:06;;;;;;;11.37;8.47;;;16.50;99.90;;;;;;5057436;28;20289;-58
2023/06/29 03:26:31;;;;;;;10.83;6.90;;;16.50;99.90;;;;;;5055928;28;20194;-68
2023/06/29 03:28:57;;;;;;;7.33;6.33;;;16.50;99.90;;;;;;5052905;28;20239;-67
2023/06/29 03:31:22;;;;;;;6.90;4.83;;;16.50;99.90;;;;;;5046512;28;20318;-68
2023/06/29 03:33:48;;;;;;;8.90;5.17;;;16.50;99.90;;;;;;5056473;28;20263;-59
2023/06/29 03:36:15;;;;;;;5.53;4.53;;;16.50;99.90;;;;;;5044895;28;20725;-58
2023/06/29 03:38:40;;;;;;;4.73;4.33;;;16.50;99.90;;;;;;5047387;28;20203;-58
2023/06/29 03:41:06;;;;;;;7.37;4.87;;;16.50;99.90;;;;;;5047612;28;20213;-58
2023/06/29 03:43:32;;;;;;;5.63;5.07;;;16.40;99.90;;;;;;5049679;28;20210;-58
2023/06/29 03:45:58;;;;;;;7.07;4.20;;;16.30;99.90;;;;;;5048204;28;20195;-59
2023/06/29 03:48:27;;;;;;;4.50;4.10;;;16.30;99.90;;;;;;5048366;28;20195;-58
2023/06/29 03:50:53;;;;;;;5.40;4.37;;;16.30;99.90;;;;;;5046759;28;20219;-58
2023/06/29 03:53:19;;;;;;;5.83;4.53;;;16.40;99.90;;;;;;5047085;28;20210;-59
2023/06/29 03:55:44;;;;;;;7.53;4.93;;;16.40;99.90;;;;;;5047228;28;20691;-59
2023/06/29 03:58:09;;;;;;;5.20;4.77;;;16.50;99.90;;;;;;5051018;28;20205;-59
2023/06/29 04:00:35;;;;;;;5.20;4.30;;;16.50;99.90;;;;;;5041555;28;20198;-59
2023/06/29 04:03:00;;;;;;;7.60;5.23;;;16.60;99.90;;;;;;5051287;28;20208;-60
2023/06/29 04:05:27;;;;;;;4.47;4.07;;;16.60;99.90;;;;;;5044386;28;20207;-59
2023/06/29 04:07:52;;;;;;;5.00;4.10;;;16.60;99.90;;;;;;5047139;28;20693;-60
2023/06/29 04:10:18;;;;;;;8.10;4.43;;;16.50;99.90;;;;;;5047521;28;20203;-59
2023/06/29 04:12:43;;;;;;;4.93;4.40;;;16.50;99.90;;;;;;5047656;28;20715;-59
2023/06/29 04:15:09;;;;;;;4.67;4.27;;;16.50;99.90;;;;;;5045059;28;20198;-59
2023/06/29 04:17:35;;;;;;;6.40;4.87;;;16.40;99.90;;;;;;5046644;28;20223;-60
2023/06/29 04:20:01;;;;;;;6.40;4.00;;;16.40;99.90;;;;;;5046288;28;21081;-59
2023/06/29 04:22:26;;;;;;;5.50;4.50;;;16.40;99.90;;;;;;5046381;28;20230;-59
2023/06/29 04:24:53;;;;;;;5.00;4.60;;;16.50;99.90;;;;;;5045351;28;20191;-59
2023/06/29 04:27:18;;;;;;;8.37;5.13;;;16.60;99.90;;;;;;5047592;28;20691;-59
2023/06/29 04:29:44;;;;;;;4.57;4.00;;;16.80;99.90;;;;;;5047495;28;20208;-59
2023/06/29 04:32:09;;;;;;;3.67;3.37;;;16.90;99.90;;;;;;5057414;28;20420;-59
2023/06/29 04:34:35;;;;;;;4.23;3.83;;;17.10;99.90;;;;;;5048921;28;20199;-59
2023/06/29 04:37:02;;;;;;;8.00;4.40;;;17.20;99.90;;;;;;5046380;28;20194;-60
2023/06/29 04:39:28;;;;;;;3.93;3.53;;;17.30;99.90;;;;;;5055438;28;20280;-60
2023/06/29 04:42:01;;;;;;;6.83;4.00;;;17.30;99.90;;;;;;5046354;28;20248;-59
2023/06/29 04:44:31;;;;;;;5.00;3.93;;;17.20;99.90;;;;;;5046007;28;20282;-59
2023/06/29 04:47:02;;;;;;;8.00;4.43;;;17.30;99.90;;;;;;5045170;28;20199;-59
2023/06/29 04:49:31;;;;;;;6.17;4.17;;;17.40;99.90;;;;;;5049755;28;20213;-59
2023/06/29 04:52:00;;;;;;;6.00;4.37;;;17.20;99.90;;;;;;5045924;28;20210;-59
2023/06/29 04:54:27;;;;;;;5.30;4.53;;;17.30;99.90;;;;;;5046023;28;20685;-60
2023/06/29 04:56:53;;;;;;;4.87;4.23;;;17.20;99.90;;;;;;5047552;28;20198;-58
2023/06/29 04:59:21;;;;;;;6.17;4.83;;;17.10;99.90;;;;;;5045263;28;20567;-58
2023/06/29 05:01:47;;;;;;;7.40;5.10;;;17.10;99.90;;;;;;5046255;28;20207;-58
2023/06/29 05:04:12;;;;;;;5.57;4.10;;;17.30;99.90;;;;;;5046047;28;20221;-69
2023/06/29 05:06:38;;;;;;;4.77;4.37;;;17.30;99.90;;;;;;5044625;28;20190;-69
2023/06/29 05:09:03;;;;;;;6.87;5.93;;;17.30;99.90;;;;;;5046602;28;20281;-69
2023/06/29 05:11:29;;;;;;;9.90;6.13;;;17.50;99.90;;;;;;5051082;28;20205;-59
2023/06/29 05:13:54;;;;;;;8.13;7.00;;;17.50;99.90;;;;;;5058416;28;20313;-59
2023/06/29 05:16:20;;;;;;;9.60;6.40;;;17.60;99.90;;;;;;5056384;28;20225;-59
2023/06/29 05:18:45;;;;;;;10.20;5.87;;;17.60;99.90;;;;;;5045531;28;20202;-59
2023/06/29 05:21:13;;;;;;;11.53;7.47;;;17.70;99.90;;;;;;5050907;28;20962;-59
2023/06/29 05:23:39;;;;;;;8.47;7.10;;;17.80;99.90;;;;;;5051607;28;20204;-59
2023/06/29 05:26:04;;;;;;;5.80;5.20;;;18.00;99.90;;;;;;5048022;28;20928;-60
2023/06/29 05:28:31;;;;;;;5.60;5.03;;;18.20;99.90;;;;;;5050359;28;20227;-62
2023/06/29 05:30:56;;;;;;;8.60;5.37;;;18.20;99.90;;;;;;5047999;28;20623;-63
2023/06/29 05:33:22;;;;;;;7.30;5.30;;;18.30;99.90;;;;;;5051296;28;20206;-60
2023/06/29 05:35:47;;;;;;;12.00;5.30;;;18.40;99.90;;;;;;5050331;28;20202;-59
2023/06/29 05:38:13;;;;;;;7.83;4.97;;;18.40;99.90;;;;;;5050426;28;20197;-60
2023/06/29 05:40:38;;;;;;;7.27;5.73;;;18.40;99.90;;;;;;5051154;28;20224;-63
2023/06/29 05:43:04;;;;;;;6.00;5.43;;;18.70;99.90;;;;;;5047977;28;20545;-63
2023/06/29 05:45:29;;;;;;;6.87;5.33;;;18.80;99.90;;;;;;5049622;28;20544;-60
2023/06/29 05:47:55;;;;;;;9.40;5.53;;;18.70;99.90;;;;;;5049565;28;20742;-59
2023/06/29 05:50:21;;;;;;;9.83;5.80;;;18.90;99.90;;;;;;5049310;28;20976;-63
2023/06/29 05:52:47;;;;;;;8.67;5.03;;;18.90;99.90;;;;;;5053468;28;20201;-68
2023/06/29 05:55:13;;;;;;;8.90;6.23;;;18.90;99.90;;;;;;5043833;28;20294;-76
2023/06/29 05:57:38;;;;;;;8.47;5.63;;;19.20;99.90;;;;;;5049543;28;20705;-68
2023/06/29 06:00:09;;;;;;;6.37;5.60;;;19.20;99.90;;;;;;5064565;28;20281;-72
2023/06/29 06:02:36;;;;;;;6.07;4.83;;;19.30;99.90;;;;;;5064705;28;20213;-67
2023/06/29 06:05:02;;;;;;;7.17;4.83;;;19.30;99.90;;;;;;5064329;28;20199;-71
2023/06/29 06:07:29;;;;;;;7.00;5.47;;;19.20;99.90;;;;;;5063733;28;20219;-72
2023/06/29 06:09:56;;;;;;;8.07;5.03;;;19.30;99.90;;;;;;5060596;28;20250;-72
2023/06/29 06:12:22;;;;;;;9.33;4.80;;;19.20;99.90;;;;;;5049120;28;20230;-70
2023/06/29 06:14:47;;;;;;;6.87;4.60;;;19.10;99.90;;;;;;5049023;28;20205;-68
2023/06/29 06:17:13;;;;;;;8.10;4.97;;;19.20;99.90;;;;;;5045034;28;20197;-69
2023/06/29 06:19:38;;;;;;;7.97;5.00;;;19.40;99.90;;;;;;5048612;28;20753;-69
2023/06/29 06:22:04;;;;;;;6.50;5.23;;;19.60;99.90;;;;;;5047970;28;20209;-69
2023/06/29 06:24:30;;;;;;;5.60;4.57;;;20.00;99.90;;;;;;5046953;28;20567;-69
2023/06/29 06:26:55;;;;;;;7.90;5.50;;;20.20;99.90;;;;;;5049622;28;20201;-69
2023/06/29 06:29:21;;;;;;;7.70;4.40;;;20.30;99.90;;;;;;5049210;28;20970;-68
2023/06/29 06:31:49;;;;;;;6.60;4.87;;;20.40;99.90;;;;;;5045792;28;20269;-68
2023/06/29 06:34:15;;;;;;;6.43;5.13;;;20.40;99.90;;;;;;5049120;28;20295;-69
2023/06/29 06:36:41;;;;;;;9.53;5.03;;;20.30;99.90;;;;;;5048482;28;20288;-69
2023/06/29 06:39:07;;;;;;;7.27;4.80;;;20.60;99.90;;;;;;5047697;28;20227;-69
2023/06/29 06:41:33;;;;;;;7.60;5.13;;;20.80;99.90;;;;;;5047464;28;20193;-69
2023/06/29 06:44:01;;;;;;;10.30;4.87;;;20.70;99.90;;;;;;5049599;28;20203;-70
2023/06/29 06:46:27;;;;;;;10.70;4.97;;;20.60;99.90;;;;;;5048137;28;20220;-68
2023/06/29 06:48:53;;;;;;;5.63;3.80;;;20.50;99.90;;;;;;5047926;28;20198;-69
2023/06/29 06:51:18;;;;;;;8.20;3.73;;;20.50;99.90;;;;;;5042771;28;20225;-74
2023/06/29 06:53:44;;;;;;;4.53;2.80;;;20.40;99.90;;;;;;5046808;28;20246;-73
2023/06/29 06:56:09;;;;;;;3.43;2.47;;;20.60;99.90;;;;;;5047148;28;20209;-69
2023/06/29 06:58:35;;;;;;;4.27;2.60;;;20.50;99.90;;;;;;5049615;28;20289;-73
2023/06/29 07:01:00;;;;;;;7.93;2.43;;;20.40;99.90;;;;;;5049267;28;20197;-74
2023/06/29 07:03:26;;;;;;;8.67;3.00;;;20.40;99.90;;;;;;5047055;28;20198;-73
2023/06/29 07:05:55;;;;;;;6.10;2.53;;;20.60;99.90;;;;;;5048474;28;20200;-69
2023/06/29 07:08:21;;;;;;;3.40;2.60;;;20.60;99.90;;;;;;5048803;28;20213;-69
2023/06/29 07:10:46;;;;;;;2.40;2.20;;;20.50;99.90;;;;;;5047450;28;20225;-72
2023/06/29 07:13:12;;;;;;;2.70;2.50;;;20.50;99.90;;;;;;5044765;28;20203;-73
2023/06/29 07:15:38;;;;;;;4.37;2.43;;;20.50;99.90;;;;;;5047803;28;20644;-74
2023/06/29 07:18:03;;;;;;;5.07;2.50;;;20.60;99.90;;;;;;5046551;28;20261;-73
2023/06/29 07:20:29;;;;;;;3.20;2.10;;;20.40;99.90;;;;;;5047684;28;20245;-73
2023/06/29 07:22:55;;;;;;;2.37;2.23;;;20.40;99.90;;;;;;5047707;28;20194;-70
2023/06/29 07:25:20;;;;;;;3.33;2.43;;;20.50;99.90;;;;;;5049293;28;20416;-71
2023/06/29 07:27:46;;;;;;;2.57;2.10;;;20.50;99.90;;;;;;5045073;28;20189;-70
2023/06/29 07:30:14;;;;;;;7.63;2.50;;;20.60;99.90;;;;;;5044517;28;20205;-70
2023/06/29 07:32:40;;;;;;;2.97;2.50;;;20.80;99.90;;;;;;5047528;28;20208;-70
2023/06/29 07:35:06;;;;;;;3.23;2.20;;;21.00;99.90;;;;;;5048005;28;20628;-70
2023/06/29 07:37:33;;;;;;;3.80;2.80;;;20.90;99.90;;;;;;5047713;28;20208;-71
2023/06/29 07:39:58;;;;;;;2.83;2.50;;;20.70;99.90;;;;;;5045825;28;20253;-70
2023/06/29 07:42:24;;;;;;;4.00;2.67;;;20.60;99.90;;;;;;5045597;28;20236;-71
2023/06/29 07:44:49;;;;;;;2.87;2.57;;;20.60;99.90;;;;;;5047541;28;20197;-71
2023/06/29 07:47:15;;;;;;;3.00;2.30;;;20.60;99.90;;;;;;5043190;28;20195;-68
2023/06/29 07:49:40;;;;;;;5.30;2.37;;;20.80;99.90;;;;;;5047446;28;20702;-69
2023/06/29 07:52:06;;;;;;;3.70;2.53;;;21.00;99.90;;;;;;5046395;28;20670;-70
2023/06/29 07:54:31;;;;;;;3.50;2.53;;;21.20;99.90;;;;;;5044556;28;20202;-68
2023/06/29 07:56:57;;;;;;;2.50;2.30;;;21.30;99.90;;;;;;5061049;28;20202;-69
2023/06/29 07:59:22;;;;;;;3.53;2.23;;;21.40;99.90;;;;;;5049389;28;20202;-69
2023/06/29 08:01:51;;;;;;;3.50;2.40;;;21.40;99.90;;;;;;5047890;28;20209;-69
2023/06/29 08:04:16;;;;;;;2.37;2.17;;;21.30;99.90;;;;;;5049097;28;20386;-69
2023/06/29 08:06:43;;;;;;;3.03;2.70;;;21.30;99.90;;;;;;5046385;28;20711;-69
2023/06/29 08:09:11;;;;;;;2.57;2.37;;;21.40;99.90;;;;;;5045609;28;20217;-70
2023/06/29 08:11:37;;;;;;;2.70;2.50;;;21.20;99.90;;;;;;5047211;28;20241;-70
2023/06/29 08:14:03;;;;;;;3.07;2.73;;;21.40;99.90;;;;;;5046784;28;20232;-73
2023/06/29 08:16:29;;;;;;;2.50;2.30;;;21.50;99.90;;;;;;5052282;28;20198;-71
2023/06/29 08:18:55;;;;;;;7.23;2.60;;;21.30;99.90;;;;;;5060328;28;20202;-72
2023/06/29 08:21:20;;;;;;;2.90;2.63;;;21.20;99.90;;;;;;5044777;28;20260;-72
2023/06/29 08:23:48;;;;;;;2.60;2.13;;;21.30;99.90;;;;;;5047425;28;20197;-72
2023/06/29 08:26:17;;;;;;;4.07;2.70;;;21.40;99.90;;;;;;5048387;28;20231;-70
2023/06/29 08:28:43;;;;;;;3.13;2.30;;;21.60;99.90;;;;;;5062275;28;20299;-69
2023/06/29 08:31:09;;;;;;;2.50;2.30;;;21.60;99.90;;;;;;5051979;28;20704;-69
2023/06/29 08:33:34;;;;;;;2.40;2.30;;;21.70;99.90;;;;;;5046771;28;20201;-69
2023/06/29 08:36:00;;;;;;;4.57;2.63;;;21.70;99.90;;;;;;5046240;28;20235;-70
2023/06/29 08:38:25;;;;;;;2.57;2.37;;;21.70;99.90;;;;;;5045555;28;20549;-67
2023/06/29 08:40:51;;;;;;;2.77;2.57;;;21.60;99.90;;;;;;5046011;28;20288;-67
2023/06/29 08:43:18;;;;;;;2.93;1.87;;;21.40;99.90;;;;;;5044576;28;20212;-66
2023/06/29 08:45:45;;;;;;;3.83;2.47;;;21.60;99.90;;;;;;5050134;28;20204;-69
2023/06/29 08:48:13;;;;;;;3.30;2.27;;;21.70;99.90;;;;;;5061506;28;20196;-67
2023/06/29 08:50:42;;;;;;;6.30;2.50;;;21.80;99.90;;;;;;5059116;28;20194;-70
2023/06/29 08:53:09;;;;;;;3.50;2.00;;;21.80;99.90;;;;;;5050175;28;20205;-70
2023/06/29 08:55:35;;;;;;;2.40;2.20;;;21.80;99.90;;;;;;5051532;28;20279;-70
2023/06/29 08:58:01;;;;;;;5.10;3.03;;;21.70;99.90;;;;;;5052800;28;20285;-72
2023/06/29 09:00:26;;;;;;;7.00;2.43;;;21.40;99.90;;;;;;5052839;28;20680;-73
2023/06/29 09:02:53;;;;;;;3.47;2.53;;;21.40;99.90;;;;;;5053071;28;20231;-72
2023/06/29 09:05:19;;;;;;;2.17;2.00;;;21.30;99.90;;;;;;5052570;28;20567;-73
2023/06/29 09:07:44;;;;;;;2.07;1.97;;;21.40;99.90;;;;;;5051259;28;20281;-72
2023/06/29 09:10:11;;;;;;;2.63;2.23;;;21.60;99.90;;;;;;5054934;28;20285;-72
2023/06/29 09:12:36;;;;;;;3.13;2.37;;;21.80;99.90;;;;;;5053467;28;20713;-73
2023/06/29 09:15:13;;;;;;;3.77;2.27;;;21.90;99.90;;;;;;5052898;28;20728;-71
2023/06/29 09:17:44;;;;;;;2.20;2.00;;;22.00;99.90;;;;;;5052801;28;20865;-72
2023/06/29 09:20:15;;;;;;;3.20;2.57;;;22.10;99.90;;;;;;5052216;28;20260;-73
2023/06/29 09:22:41;;;;;;;3.43;2.33;;;22.00;99.90;;;;;;5046652;28;20202;-74
2023/06/29 09:25:09;;;;;;;2.70;2.50;;;21.90;99.90;;;;;;5055508;28;20210;-73
2023/06/29 09:27:35;;;;;;;3.70;2.67;;;22.00;99.90;;;;;;5063459;28;20255;-72
2023/06/29 09:30:03;;;;;;;2.57;1.80;;;22.20;99.90;;;;;;5062525;28;20189;-72
2023/06/29 09:32:29;;;;;;;2.20;2.00;;;22.20;99.90;;;;;;5063319;28;20274;-72
2023/06/29 09:35:03;;;;;;;2.33;2.13;;;22.20;99.90;;;;;;5060773;28;20250;-71
2023/06/29 09:37:29;;;;;;;3.47;2.67;;;22.20;99.90;;;;;;5061150;28;20655;-73
2023/06/29 09:40:05;;;;;;;3.40;2.40;;;22.10;99.90;;;;;;5066290;28;20278;-73
2023/06/29 09:42:34;;;;;;;3.70;2.33;;;22.20;99.90;;;;;;5059501;28;20213;-74
2023/06/29 09:45:02;;;;;;;3.77;2.10;;;22.30;99.90;;;;;;5062106;28;20209;-73
2023/06/29 09:47:28;;;;;;;2.87;2.40;;;22.20;99.90;;;;;;5058000;28;20212;-71
2023/06/29 09:49:54;;;;;;;5.93;2.43;;;22.30;99.90;;;;;;5049617;28;20209;-68
2023/06/29 09:52:21;;;;;;;5.33;2.60;;;22.30;99.90;;;;;;5053421;28;20255;-71
2023/06/29 09:54:49;;;;;;;3.57;2.60;;;22.50;99.90;;;;;;5056495;28;20197;-71
2023/06/29 09:57:22;;;;;;;3.40;2.60;;;22.50;99.90;;;;;;5051197;28;20198;-70
2023/06/29 09:59:48;;;;;;;2.60;2.30;;;22.30;99.90;;;;;;5050505;28;20680;-71
2023/06/29 10:02:14;;;;;;;5.83;2.47;;;22.20;99.90;;;;;;5059239;28;20207;-69
2023/06/29 10:04:41;;;;;;;3.53;2.70;;;22.40;99.90;;;;;;5058653;28;20202;-70
2023/06/29 10:07:14;;;;;;;5.00;3.07;;;22.40;99.90;;;;;;5047261;28;20645;-69
2023/06/29 10:09:42;;;;;;;3.43;3.00;;;22.70;99.90;;;;;;5048094;28;20570;-66
2023/06/29 10:12:10;;;;;;;2.87;2.67;;;22.60;99.90;;;;;;5045068;28;20221;-68
2023/06/29 10:14:43;;;;;;;3.40;3.00;;;22.40;99.90;;;;;;5052741;28;20528;-69
2023/06/29 10:17:13;;;;;;;5.37;2.77;;;22.40;99.90;;;;;;5046874;28;20201;-67
2023/06/29 10:19:40;;;;;;;2.70;2.03;;;22.60;99.90;;;;;;5047477;28;20195;-68
2023/06/29 10:22:09;;;;;;;6.20;2.97;;;22.70;99.90;;;;;;5048085;28;20765;-69
2023/06/29 10:25:00;;;;;;;2.37;2.17;;;23.00;99.90;;;;;;5047729;28;20206;-69
2023/06/29 10:27:29;;;;;;;3.57;2.40;;;22.90;99.90;;;;;;5046960;28;20242;-69
2023/06/29 10:29:54;;;;;;;3.87;2.50;;;22.70;99.90;;;;;;5048620;28;20233;-69
2023/06/29 10:32:39;;;;;;;2.37;2.17;;;22.80;99.90;;;;;;5053880;28;20222;-69
2023/06/29 10:35:10;;;;;;;3.67;2.30;;;22.80;99.90;;;;;;5060278;28;20576;-69
2023/06/29 10:37:42;;;;;;;2.37;2.17;;;22.90;99.90;;;;;;5057986;28;20206;-73
2023/06/29 10:40:11;;;;;;;3.10;2.70;;;23.10;99.90;;;;;;5058806;28;20799;-71
2023/06/29 10:42:39;;;;;;;2.27;2.10;;;23.50;99.30;;;;;;5056183;28;20249;-69
2023/06/29 10:45:30;;;;;;;2.10;2.00;;;23.40;99.40;;;;;;5057040;28;20194;-70
2023/06/29 10:48:01;;;;;;;3.85;2.47;;;23.50;99.00;;;;;;5054322;28;20205;-69
2023/06/29 10:50:38;;;;;;;2.77;2.50;;;23.80;98.20;;;;;;5056192;28;20210;-69
2023/06/29 10:53:05;;;;;;;3.47;2.57;;;23.70;99.10;;;;;;5057373;28;20778;-70
2023/06/29 10:55:41;;;;;;;2.80;2.60;;;23.60;98.70;;;;;;5056184;28;21003;-69
2023/06/29 10:58:14;;;;;;;3.33;2.87;;;23.60;99.30;;;;;;5056634;28;20339;-69
2023/06/29 11:00:40;;;;;;;4.30;2.80;;;23.40;99.70;;;;;;5058599;28;20561;-69
2023/06/29 11:03:08;;;;;;;3.13;2.83;;;23.30;99.90;;;;;;5057084;28;20207;-69
2023/06/29 11:05:35;;;;;;;5.63;3.10;;;23.40;99.90;;;;;;5058920;28;20259;-69
2023/06/29 11:08:01;;;;;;;3.73;3.33;;;23.40;99.90;;;;;;5056872;28;20202;-69
2023/06/29 11:10:28;;;;;;;3.13;2.93;;;23.30;99.90;;;;;;5060346;28;20209;-69
2023/06/29 11:12:54;;;;;;;3.80;3.03;;;23.40;99.90;;;;;;5053294;28;20707;-69
2023/06/29 11:15:21;;;;;;;2.60;2.40;;;23.60;99.90;;;;;;5058263;28;20206;-69
2023/06/29 11:17:49;;;;;;;4.53;2.70;;;23.90;99.00;;;;;;5058444;28;22612;-68
2023/06/29 11:20:16;;;;;;;3.33;2.80;;;23.90;99.90;;;;;;5056670;28;20210;-68
2023/06/29 11:22:43;;;;;;;5.20;3.20;;;23.70;99.90;;;;;;5056470;28;20202;-69
2023/06/29 11:25:11;;;;;;;6.07;2.93;;;23.80;99.50;;;;;;5058028;28;20267;-70
2023/06/29 11:27:37;;;;;;;3.10;2.90;;;24.00;99.90;;;;;;5058644;28;20272;-69
2023/06/29 11:30:07;;;;;;;2.70;2.50;;;23.80;99.70;;;;;;5057993;28;20663;-69
2023/06/29 11:32:33;;;;;;;4.78;3.03;;;23.70;99.90;;;;;;5056103;28;20278;-68
2023/06/29 11:35:00;;;;;;;4.15;2.80;;;23.90;99.60;;;;;;5058050;28;20214;-68
2023/06/29 11:37:26;;;;;;;5.05;2.88;;;24.40;98.90;;;;;;5057844;28;20889;-68
2023/06/29 11:39:52;;;;;;;3.40;3.10;;;25.00;97.50;;;;;;5057648;28;20775;-68
2023/06/29 11:42:19;;;;;;;5.57;3.40;;;24.50;99.20;;;;;;5057608;28;20213;-68
2023/06/29 11:44:45;;;;;;;3.30;2.80;;;24.50;98.70;;;;;;5056208;28;20207;-68
2023/06/29 11:47:13;;;;;;;3.30;3.03;;;24.60;99.90;;;;;;5057077;28;20689;-68
2023/06/29 11:49:38;;;;;;;5.50;3.75;;;24.70;99.30;;;;;;5057580;28;20206;-68
2023/06/29 11:52:06;;;;;;;2.88;2.67;;;25.00;98.20;;;;;;5057474;28;20576;-68
2023/06/29 11:54:32;;;;;;;3.47;2.63;;;25.00;98.30;;;;;;5057685;28;20214;-68
2023/06/29 11:56:58;;;;;;;3.47;3.17;;;24.70;99.90;;;;;;5060312;28;20672;-68
2023/06/29 11:59:24;;;;;;;5.45;3.35;;;24.90;98.10;;;;;;5057016;28;20241;-68
2023/06/29 12:01:50;;;;;;;3.85;3.47;;;24.80;98.60;;;;;;5054059;28;20706;-68
2023/06/29 12:04:16;;;;;;;3.30;3.03;;;24.60;98.60;;;;;;5057190;28;20232;-68
2023/06/29 12:06:52;;;;;;;5.28;3.53;;;24.60;99.20;;;;;;5057595;28;20245;-68
2023/06/29 12:09:18;;;;;;;4.32;3.70;;;24.50;99.90;;;;;;5057344;28;20247;-69
2023/06/29 12:11:43;;;;;;;4.07;2.88;;;24.40;99.70;;;;;;5057543;28;20212;-69
2023/06/29 12:14:09;;;;;;;3.97;2.95;;;24.30;99.30;;;;;;5057421;28;20544;-69
2023/06/29 12:16:40;;;;;;;4.53;2.92;;;24.40;99.30;;;;;;5057247;28;20521;-69
2023/06/29 12:19:12;;;;;;;3.22;2.97;;;24.50;99.20;;;;;;5055130;28;20256;-68
2023/06/29 12:21:38;;;;;;;2.85;2.65;;;24.80;98.60;;;;;;5058058;28;20226;-68
2023/06/29 12:24:04;;;;;;;2.30;2.10;;;25.00;99.20;;;;;;5055032;28;20257;-68
2023/06/29 12:26:30;;;;;;;3.15;2.78;;;25.40;97.60;;;;;;5055111;28;20260;-68
2023/06/29 12:28:56;;;;;;;3.33;2.95;;;25.90;96.10;;;;;;5054652;28;20208;-68
2023/06/29 12:31:28;;;;;;;2.78;2.58;;;26.20;95.00;;;;;;5057927;28;20212;-68
2023/06/29 12:33:54;;;;;;;3.03;2.78;;;26.30;95.40;;;;;;5053911;28;20278;-69
2023/06/29 12:36:20;;;;;;;3.42;3.08;;;25.80;97.60;;;;;;5056194;28;20206;-67
2023/06/29 12:38:50;;;;;;;3.10;2.60;;;26.00;96.30;;;;;;5044940;28;20197;-68
2023/06/29 12:41:15;;;;;;;4.45;2.88;;;25.90;96.40;;;;;;5049459;28;20759;-67
2023/06/29 12:43:41;;;;;;;3.05;2.70;;;25.90;95.30;;;;;;5053444;28;20207;-68